Charles W Clark — WCP7548 — position and weather

sailwx.info

Track history (hours):
 
Tides and Currents Weather Stations Pressure Air Temp Water Temp Dewpoint Dewpoint Depression Visibility Wind Speed Wind Dir Waves Ship Positions

Charles W Clark

Owner: BLESSEY ENTERPRISES INC, HARAHAN, LA. More information available from US FCC via Universal Licensing System and Coast Guard Vessel Documentation Center.

Last reported at 2017-Sep-26 00:09 UTC. Time now 2017-Sep-26 16:40 UTC.
Position N 29°45' W 095°06'.

Length 20 m.

Type: Towing. MMSI: 366933680.

Date/timePositionNaut miles runAvg speedWind from/ knotsBaromVisibWave heightAir tempDewpointWater temp
2017-Sep-26 00:09N 29°45' W 095°06'2 8.2
2017-Sep-25 23:56N 29°44' W 095°08'5 5.7
2017-Sep-25 23:05N 29°44' W 095°14'0 0.0
2017-Sep-25 22:53N 29°44' W 095°14'0 0.0
2017-Sep-25 22:25N 29°44' W 095°14'0 0.0
2017-Sep-25 22:00N 29°44' W 095°14'0 0.0
2017-Sep-25 21:23N 29°44' W 095°14'0 0.0
2017-Sep-25 21:00N 29°44' W 095°14'0 0.0
2017-Sep-25 20:06N 29°44' W 095°14'0 0.0
2017-Sep-25 20:00N 29°44' W 095°14'0 0.0
2017-Sep-25 19:27N 29°44' W 095°14'0 0.0
2017-Sep-25 18:52N 29°44' W 095°14'0 0.0
2017-Sep-25 18:29N 29°44' W 095°14'0 0.0
2017-Sep-25 17:59N 29°44' W 095°14'0 0.0
2017-Sep-25 17:24N 29°44' W 095°14'0 0.0
2017-Sep-25 10:45N 29°44' W 095°14'0 0.0
2017-Sep-25 10:26N 29°44' W 095°14'0 0.0
2017-Sep-25 09:55N 29°44' W 095°14'0 0.0
2017-Sep-25 09:29N 29°44' W 095°14'0 0.0
2017-Sep-25 08:58N 29°44' W 095°14'1 2.7
2017-Sep-25 08:26N 29°44' W 095°12'3 7.1
2017-Sep-25 08:01N 29°44' W 095°09'4 6.2
2017-Sep-25 07:19N 29°47' W 095°05'0 0.1
2017-Sep-25 05:23N 29°46' W 095°05'4 7.1
2017-Sep-25 04:48N 29°44' W 095°09'4 1.8
2017-Sep-25 02:26N 29°44' W 095°14'0 0.0
2017-Sep-25 01:52N 29°44' W 095°14'0 0.0
2017-Sep-25 01:19N 29°44' W 095°14'0 0.0
2017-Sep-25 01:00N 29°44' W 095°14'0 0.0
2017-Sep-25 00:23N 29°44' W 095°14'0 0.0
2017-Sep-24 23:56N 29°44' W 095°14'0 0.0
2017-Sep-24 23:28N 29°44' W 095°14'0 0.0
2017-Sep-24 22:56N 29°44' W 095°14'0 0.0
2017-Sep-24 22:29N 29°44' W 095°14'0 0.0
2017-Sep-24 14:10N 29°44' W 095°14'0 1.3
2017-Sep-24 13:58N 29°44' W 095°13'1 2.4
2017-Sep-24 13:25N 29°44' W 095°12'3 6.7
2017-Sep-24 13:00N 29°44' W 095°09'4 6.6
2017-Sep-24 12:21N 29°46' W 095°05'  
2017-Sep-21 22:47N 29°43' W 095°01'2 5.6
2017-Sep-21 22:29N 29°42' W 094°60'3 6.2
2017-Sep-21 21:56N 29°39' W 094°58'3 6.4
2017-Sep-21 21:31N 29°36' W 094°57'3 6.7
2017-Sep-21 21:01N 29°34' W 094°55'  
2017-Sep-19 10:41N 29°29' W 094°52'1 6.5
2017-Sep-19 10:29N 29°30' W 094°52'3 6.7
2017-Sep-19 10:00N 29°33' W 094°54'3 6.9
2017-Sep-19 09:30N 29°36' W 094°57'4 7.3
2017-Sep-19 08:58N 29°39' W 094°58'3 7.2
2017-Sep-19 08:30N 29°42' W 095°01'3 6.6
2017-Sep-19 07:59N 29°44' W 095°04'2 0.9
2017-Sep-19 05:55N 29°46' W 095°05'4 7.5
2017-Sep-19 05:23N 29°44' W 095°09'3 6.7
2017-Sep-19 04:54N 29°43' W 095°13'0 0.0
2017-Sep-18 16:59N 29°44' W 095°14'0 0.0
2017-Sep-18 15:38N 29°44' W 095°14'0 0.0
2017-Sep-18 15:09N 29°44' W 095°14'0 0.0
2017-Sep-18 14:54N 29°44' W 095°14'4 0.3
2017-Sep-18 00:10N 29°44' W 095°09'2 7.5
2017-Sep-17 23:53N 29°45' W 095°06'3 0.1
2017-Sep-16 22:03N 29°47' W 095°05'  
Track history (hours):
 
Tides and Currents Weather Stations Pressure Air Temp Water Temp Dewpoint Dewpoint Depression Visibility Wind Speed Wind Dir Waves Ship Positions

Charles W Clark

Owner: BLESSEY ENTERPRISES INC, HARAHAN, LA. More information available from US FCC via Universal Licensing System and Coast Guard Vessel Documentation Center.

Last reported at 2017-Sep-26 00:09 UTC. Time now 2017-Sep-26 16:40 UTC.
Position N 29°45' W 095°06'.

Length 20 m.

Type: Towing. MMSI: 366933680.

Date/timePositionNaut miles runAvg speedWind from/ knotsBaromVisibWave heightAir tempDewpointWater temp
2017-Sep-26 00:09N 29°45' W 095°06'2 8.2
2017-Sep-25 23:56N 29°44' W 095°08'5 5.7
2017-Sep-25 23:05N 29°44' W 095°14'0 0.0
2017-Sep-25 22:53N 29°44' W 095°14'0 0.0
2017-Sep-25 22:25N 29°44' W 095°14'0 0.0
2017-Sep-25 22:00N 29°44' W 095°14'0 0.0
2017-Sep-25 21:23N 29°44' W 095°14'0 0.0
2017-Sep-25 21:00N 29°44' W 095°14'0 0.0
2017-Sep-25 20:06N 29°44' W 095°14'0 0.0
2017-Sep-25 20:00N 29°44' W 095°14'0 0.0
2017-Sep-25 19:27N 29°44' W 095°14'0 0.0
2017-Sep-25 18:52N 29°44' W 095°14'0 0.0
2017-Sep-25 18:29N 29°44' W 095°14'0 0.0
2017-Sep-25 17:59N 29°44' W 095°14'0 0.0
2017-Sep-25 17:24N 29°44' W 095°14'0 0.0
2017-Sep-25 10:45N 29°44' W 095°14'0 0.0
2017-Sep-25 10:26N 29°44' W 095°14'0 0.0
2017-Sep-25 09:55N 29°44' W 095°14'0 0.0
2017-Sep-25 09:29N 29°44' W 095°14'0 0.0
2017-Sep-25 08:58N 29°44' W 095°14'1 2.7
2017-Sep-25 08:26N 29°44' W 095°12'3 7.1
2017-Sep-25 08:01N 29°44' W 095°09'4 6.2
2017-Sep-25 07:19N 29°47' W 095°05'0 0.1
2017-Sep-25 05:23N 29°46' W 095°05'4 7.1
2017-Sep-25 04:48N 29°44' W 095°09'4 1.8
2017-Sep-25 02:26N 29°44' W 095°14'0 0.0
2017-Sep-25 01:52N 29°44' W 095°14'0 0.0
2017-Sep-25 01:19N 29°44' W 095°14'0 0.0
2017-Sep-25 01:00N 29°44' W 095°14'0 0.0
2017-Sep-25 00:23N 29°44' W 095°14'0 0.0
2017-Sep-24 23:56N 29°44' W 095°14'0 0.0
2017-Sep-24 23:28N 29°44' W 095°14'0 0.0
2017-Sep-24 22:56N 29°44' W 095°14'0 0.0
2017-Sep-24 22:29N 29°44' W 095°14'0 0.0
2017-Sep-24 14:10N 29°44' W 095°14'0 1.3
2017-Sep-24 13:58N 29°44' W 095°13'1 2.4
2017-Sep-24 13:25N 29°44' W 095°12'3 6.7
2017-Sep-24 13:00N 29°44' W 095°09'4 6.6
2017-Sep-24 12:21N 29°46' W 095°05'  
2017-Sep-21 22:47N 29°43' W 095°01'2 5.6
2017-Sep-21 22:29N 29°42' W 094°60'3 6.2
2017-Sep-21 21:56N 29°39' W 094°58'3 6.4
2017-Sep-21 21:31N 29°36' W 094°57'3 6.7
2017-Sep-21 21:01N 29°34' W 094°55'  
2017-Sep-19 10:41N 29°29' W 094°52'1 6.5
2017-Sep-19 10:29N 29°30' W 094°52'3 6.7
2017-Sep-19 10:00N 29°33' W 094°54'3 6.9
2017-Sep-19 09:30N 29°36' W 094°57'4 7.3
2017-Sep-19 08:58N 29°39' W 094°58'3 7.2
2017-Sep-19 08:30N 29°42' W 095°01'3 6.6
2017-Sep-19 07:59N 29°44' W 095°04'2 0.9
2017-Sep-19 05:55N 29°46' W 095°05'4 7.5
2017-Sep-19 05:23N 29°44' W 095°09'3 6.7
2017-Sep-19 04:54N 29°43' W 095°13'0 0.0
2017-Sep-18 16:59N 29°44' W 095°14'0 0.0
2017-Sep-18 15:38N 29°44' W 095°14'0 0.0
2017-Sep-18 15:09N 29°44' W 095°14'0 0.0
2017-Sep-18 14:54N 29°44' W 095°14'4 0.3
2017-Sep-18 00:10N 29°44' W 095°09'2 7.5
2017-Sep-17 23:53N 29°45' W 095°06'3 0.1
2017-Sep-16 22:03N 29°47' W 095°05'  

Dump ship's entire track history